Time;durP1;ratioP1;P1;durP2;ratioP2;P2;SDS_P1;SDS_P2;PMS_P1;PMS_P2;Temp;Humidity;BMP_temperature;BMP_pressure;BME280_temperature;BME280_humidity;BME280_pressure;Samples;Min_cycle;Max_cycle;Signal;HPM_P1;HPM_P2
2022/01/26 00:07:53;;;;;;;72.78;32.10;;;;;;;4.76;71.00;102742.16;5031805;28;20045;-58
2022/01/26 00:10:20;;;;;;;72.20;33.28;;;;;;;4.76;71.12;102729.16;5033327;28;20050;-57
2022/01/26 00:12:46;;;;;;;76.10;33.90;;;;;;;4.72;70.90;102736.09;5035604;28;20058;-58
2022/01/26 00:15:13;;;;;;;75.22;33.83;;;;;;;4.71;70.95;102731.75;5035428;28;20050;-59
2022/01/26 00:17:40;;;;;;;71.43;34.63;;;;;;;4.76;70.84;102731.78;5035229;28;20049;-58
2022/01/26 00:25:40;;;;;;;74.38;33.47;;;;;;;4.76;70.69;102722.22;5034244;28;20049;-58
2022/01/26 00:28:29;;;;;;;76.22;34.72;;;;;;;4.84;70.58;102717.91;5035197;28;20046;-58
2022/01/26 00:38:47;;;;;;;79.60;34.15;;;;;;;4.71;70.45;102704.03;5035152;28;20060;-58
2022/01/26 00:41:20;;;;;;;72.85;33.65;;;;;;;4.74;70.91;102701.41;5034221;28;20125;-57
2022/01/26 00:43:54;;;;;;;71.63;32.75;;;;;;;4.68;70.70;102698.81;5034818;28;20060;-58
2022/01/26 00:46:21;;;;;;;75.53;33.95;;;;;;;4.68;70.77;102697.97;5034817;28;20095;-58
2022/01/26 00:48:50;;;;;;;80.10;35.28;;;;;;;4.75;70.69;102694.50;5034803;28;20041;-58
2022/01/26 00:51:20;;;;;;;76.88;35.47;;;;;;;4.65;70.99;102698.84;5034819;28;20107;-58
2022/01/26 00:53:53;;;;;;;79.90;33.72;;;;;;;4.64;70.91;102691.91;5034646;28;20524;-58
2022/01/26 00:56:20;;;;;;;74.72;33.83;;;;;;;4.65;70.99;102700.56;5034833;28;20049;-58
2022/01/26 00:58:47;;;;;;;79.28;35.17;;;;;;;4.62;70.76;102693.66;5033578;28;20049;-58
2022/01/26 01:01:14;;;;;;;74.47;34.30;;;;;;;4.63;70.62;102691.91;5034741;28;20041;-58
2022/01/26 01:03:44;;;;;;;78.82;33.45;;;;;;;4.65;70.69;102690.19;5034577;28;20046;-58
2022/01/26 01:08:41;;;;;;;78.50;36.47;;;;;;;4.56;70.80;102684.09;5034592;28;20052;-58
2022/01/26 01:11:09;;;;;;;80.43;34.80;;;;;;;4.56;71.04;102694.50;5034502;28;20045;-58
2022/01/26 01:13:39;;;;;;;75.93;34.53;;;;;;;4.57;70.98;102692.75;5033261;28;20061;-58
2022/01/26 01:16:08;;;;;;;71.80;33.67;;;;;;;4.49;71.11;102687.56;5034363;28;20095;-58
2022/01/26 01:31:29;;;;;;;80.45;35.67;;;;;;;4.51;70.98;102696.22;5033080;28;20045;-58
2022/01/26 01:33:56;;;;;;;79.30;35.78;;;;;;;4.53;71.21;102698.81;5033822;28;20123;-58
2022/01/26 01:36:23;;;;;;;75.30;34.47;;;;;;;4.55;71.11;102697.97;5034002;28;20049;-57
2022/01/26 01:38:50;;;;;;;79.43;35.70;;;;;;;4.50;71.10;102698.84;5033770;28;20049;-58
2022/01/26 01:41:16;;;;;;;83.53;35.90;;;;;;;4.47;71.18;102698.81;5033801;28;20049;-58
2022/01/26 01:43:43;;;;;;;78.10;33.92;;;;;;;4.48;71.00;102701.44;5033688;28;20042;-58
2022/01/26 01:46:10;;;;;;;76.15;35.28;;;;;;;4.46;71.04;102697.13;5033867;28;20045;-58
2022/01/26 01:48:37;;;;;;;88.60;38.70;;;;;;;4.45;71.13;102695.38;5032697;28;20049;-58
2022/01/26 01:51:07;;;;;;;85.68;35.25;;;;;;;4.41;71.12;102692.75;5033824;28;20107;-58
2022/01/26 01:53:44;;;;;;;81.65;35.95;;;;;;;4.46;70.98;102699.72;5033630;28;20054;-58
2022/01/26 01:56:13;;;;;;;79.55;35.00;;;;;;;4.45;71.04;102704.03;5033594;28;20088;-57
2022/01/26 01:58:41;;;;;;;86.30;37.30;;;;;;;4.44;71.01;102698.81;5033553;28;20096;-58
2022/01/26 02:01:08;;;;;;;82.03;35.40;;;;;;;4.45;70.86;102700.56;5033555;28;20064;-58
2022/01/26 02:03:35;;;;;;;82.95;35.63;;;;;;;4.41;70.69;102697.94;5033310;28;20045;-58
2022/01/26 02:06:02;;;;;;;92.78;38.75;;;;;;;4.44;70.90;102699.69;5032351;28;20049;-57
2022/01/26 02:08:29;;;;;;;87.25;36.38;;;;;;;4.41;70.92;102690.16;5033267;28;20045;-57
2022/01/26 02:10:55;;;;;;;85.07;37.50;;;;;;;4.40;71.01;102690.16;5033103;28;20049;-58
2022/01/26 02:13:33;;;;;;;82.35;34.83;;;;;;;4.47;70.53;102691.03;5033244;28;20053;-58
2022/01/26 02:16:10;;;;;;;92.25;36.90;;;;;;;4.45;70.71;102698.81;5033115;28;20076;-58
2022/01/26 02:57:10;;;;;;;93.00;38.73;;;;;;;4.36;70.76;102675.44;5032500;28;20053;-58
2022/01/26 03:02:33;;;;;;;95.00;40.17;;;;;;;4.32;71.10;102668.50;5032554;28;20049;-58
2022/01/26 03:05:02;;;;;;;96.45;41.28;;;;;;;4.34;71.17;102665.03;5032404;28;20049;-58
2022/01/26 03:10:05;;;;;;;104.22;41.08;;;;;;;4.37;71.14;102657.22;5032302;28;20064;-57
2022/01/26 03:13:09;;;;;;;109.28;43.15;;;;;;;4.42;70.68;102659.84;5032108;28;20513;-58
2022/01/26 03:15:30;;;;;;;98.80;41.55;;;;;;;4.44;70.79;102655.50;5031088;28;20057;-58
2022/01/26 03:20:23;;;;;;;109.50;43.42;;;;;;;4.29;71.46;102656.38;5032289;28;20484;-58
2022/01/26 03:34:13;;;;;;;112.68;42.90;;;;;;;4.40;71.33;102652.03;5030044;28;20052;-58
2022/01/26 03:37:04;;;;;;;106.65;42.85;;;;;;;4.47;70.97;102649.44;5031336;28;20042;-58
2022/01/26 03:39:38;;;;;;;113.18;44.15;;;;;;;4.44;71.13;102645.09;5032097;28;20414;-58
2022/01/26 03:42:07;;;;;;;119.50;43.40;;;;;;;4.47;71.12;102649.44;5032156;28;20071;-58
2022/01/26 03:44:34;;;;;;;112.93;42.50;;;;;;;4.47;71.13;102647.72;5033209;28;20049;-58
2022/01/26 03:47:01;;;;;;;107.03;44.05;;;;;;;4.41;71.40;102643.38;5035101;28;20046;-58
2022/01/26 03:49:28;;;;;;;107.72;41.83;;;;;;;4.39;71.35;102650.31;5036220;28;20049;-58
2022/01/26 03:51:55;;;;;;;114.35;43.67;;;;;;;4.43;71.25;102645.09;5035770;28;20623;-58
2022/01/26 03:54:22;;;;;;;108.28;42.90;;;;;;;4.46;71.50;102642.53;5035784;28;20080;-58
2022/01/26 03:56:49;;;;;;;114.72;43.80;;;;;;;4.40;71.41;102639.03;5035634;28;20103;-58
2022/01/26 03:59:15;;;;;;;118.03;43.65;;;;;;;4.36;71.75;102647.69;5035552;28;20517;-58
2022/01/26 04:01:42;;;;;;;114.50;43.90;;;;;;;4.37;71.90;102649.44;5034767;28;20096;-57
2022/01/26 04:04:09;;;;;;;120.10;44.50;;;;;;;4.46;71.66;102650.31;5031115;28;20099;-58
2022/01/26 04:06:36;;;;;;;125.75;45.63;;;;;;;4.45;71.52;102646.84;5032038;28;20045;-58
2022/01/26 04:09:10;;;;;;;122.00;46.75;;;;;;;4.39;71.55;102642.53;5032160;28;20056;-58
2022/01/26 04:11:40;;;;;;;122.88;45.28;;;;;;;4.40;71.54;102639.03;5032495;28;20053;-58
2022/01/26 04:14:14;;;;;;;134.75;48.10;;;;;;;4.36;71.67;102652.91;5032225;28;20050;-58
2022/01/26 04:16:42;;;;;;;123.75;46.58;;;;;;;4.39;71.58;102644.22;5031853;28;20490;-57
2022/01/26 04:19:10;;;;;;;122.43;46.15;;;;;;;4.35;72.24;102642.50;5031096;28;20057;-58
2022/01/26 04:24:20;;;;;;;125.32;47.00;;;;;;;4.35;71.98;102637.31;5031733;28;20057;-58
2022/01/26 04:29:20;;;;;;;126.88;46.15;;;;;;;4.40;71.97;102645.97;5031803;28;20052;-58
2022/01/26 04:31:47;;;;;;;127.68;47.75;;;;;;;4.30;72.16;102644.25;5031554;28;20042;-58
2022/01/26 04:34:14;;;;;;;120.60;45.55;;;;;;;4.24;72.41;102642.47;5031842;28;20115;-58
2022/01/26 04:36:48;;;;;;;130.30;49.38;;;;;;;4.31;72.29;102639.03;5030358;28;20104;-58
2022/01/26 04:39:20;;;;;;;126.15;46.90;;;;;;;4.41;72.19;102645.09;5031506;28;20065;-58
2022/01/26 04:41:53;;;;;;;122.53;46.58;;;;;;;4.41;72.01;102639.91;5031450;28;20045;-58
2022/01/26 04:44:30;;;;;;;121.78;44.90;;;;;;;4.38;72.05;102635.56;5031507;28;20054;-58
2022/01/26 04:46:57;;;;;;;124.07;48.22;;;;;;;4.32;72.14;102627.78;5031476;28;20049;-58
2022/01/26 04:49:24;;;;;;;132.40;50.15;;;;;;;4.19;72.54;102634.72;5031202;28;20149;-59
2022/01/26 04:51:50;;;;;;;131.82;47.50;;;;;;;4.23;72.54;102636.44;5030354;28;20045;-57
2022/01/26 04:54:17;;;;;;;131.70;48.30;;;;;;;4.24;72.44;102635.56;5030086;28;20076;-58
2022/01/26 04:56:44;;;;;;;129.73;47.67;;;;;;;4.18;72.88;102629.53;5030804;28;20133;-57
2022/01/26 04:59:11;;;;;;;131.52;46.58;;;;;;;4.19;72.31;102626.03;5031164;28;20057;-59
2022/01/26 05:01:38;;;;;;;121.78;46.08;;;;;;;4.20;72.67;102630.38;5031200;28;20046;-58
2022/01/26 05:04:04;;;;;;;129.98;47.03;;;;;;;4.22;72.57;102628.66;5031159;28;20141;-58
2022/01/26 05:06:31;;;;;;;131.15;47.90;;;;;;;4.27;72.43;102624.31;5031188;28;20095;-59
2022/01/26 05:08:58;;;;;;;123.55;47.33;;;;;;;4.27;72.25;102629.50;5029994;28;20456;-58
2022/01/26 05:11:34;;;;;;;119.75;46.50;;;;;;;4.27;72.53;102628.63;5031036;28;20063;-58
2022/01/26 05:14:00;;;;;;;119.72;46.42;;;;;;;4.27;72.35;102633.81;5030789;28;20510;-58
2022/01/26 05:16:28;;;;;;;123.05;47.45;;;;;;;4.20;72.66;102631.25;5030920;28;20129;-58
2022/01/26 05:18:56;;;;;;;123.47;45.72;;;;;;;4.21;72.65;102635.56;5030667;28;20498;-59
2022/01/26 05:21:24;;;;;;;115.55;45.30;;;;;;;4.23;72.55;102633.84;5031329;28;20541;-58
2022/01/26 05:23:51;;;;;;;125.88;47.47;;;;;;;4.22;72.49;102636.44;5029823;28;20433;-58
2022/01/26 05:26:18;;;;;;;125.05;46.67;;;;;;;4.21;72.40;102639.91;5030650;28;20068;-58
2022/01/26 05:28:45;;;;;;;122.53;47.47;;;;;;;4.23;72.42;102632.97;5030490;28;20052;-58
2022/01/26 05:31:12;;;;;;;124.57;45.88;;;;;;;4.26;72.29;102627.78;5030887;28;20053;-58
2022/01/26 05:33:39;;;;;;;121.00;45.70;;;;;;;4.21;72.63;102632.97;5030530;28;20045;-58
2022/01/26 05:36:06;;;;;;;122.97;45.97;;;;;;;4.19;72.68;102637.31;5030628;28;20414;-58
2022/01/26 05:38:32;;;;;;;128.52;47.47;;;;;;;4.20;72.42;102633.84;5030157;28;20108;-59
2022/01/26 05:41:02;;;;;;;120.68;45.50;;;;;;;4.23;72.55;102632.97;5029777;28;20096;-58
2022/01/26 05:43:29;;;;;;;115.72;45.58;;;;;;;4.22;72.51;102628.66;5030229;28;20049;-58
2022/01/26 05:46:01;;;;;;;112.88;46.38;;;;;;;4.23;72.22;102632.97;5030473;28;20049;-58
2022/01/26 05:48:28;;;;;;;114.47;46.20;;;;;;;4.19;72.77;102636.41;5030268;28;20520;-58
2022/01/26 05:51:04;;;;;;;123.75;46.67;;;;;;;4.13;72.82;102626.91;5030080;28;20560;-60
2022/01/26 05:53:32;;;;;;;124.82;48.40;;;;;;;4.14;72.76;102627.75;5030233;28;20049;-58
2022/01/26 05:55:59;;;;;;;122.95;47.42;;;;;;;4.11;72.92;102635.56;5030178;28;20049;-58
2022/01/26 05:58:26;;;;;;;131.18;48.97;;;;;;;4.16;72.89;102636.44;5029123;28;20053;-60
2022/01/26 06:00:52;;;;;;;122.75;48.63;;;;;;;4.10;72.85;102637.28;5029971;28;20092;-58
2022/01/26 06:03:19;;;;;;;127.55;48.20;;;;;;;4.08;72.97;102634.69;5030151;28;20045;-61
2022/01/26 06:05:46;;;;;;;122.88;46.95;;;;;;;4.07;73.07;102638.13;5029655;28;20091;-59
2022/01/26 06:08:13;;;;;;;142.35;48.67;;;;;;;4.18;72.68;102632.97;5029197;28;20054;-59
2022/01/26 06:10:39;;;;;;;139.30;50.67;;;;;;;4.19;72.69;102639.03;5029822;28;20482;-60
2022/01/26 06:13:06;;;;;;;130.88;48.47;;;;;;;4.19;72.79;102636.41;5030057;28;20049;-59
2022/01/26 06:15:37;;;;;;;128.35;49.35;;;;;;;4.19;72.61;102631.22;5028983;28;20081;-59
2022/01/26 06:18:04;;;;;;;129.48;49.33;;;;;;;4.24;72.49;102637.28;5029972;28;20056;-59
2022/01/26 06:20:36;;;;;;;131.75;47.88;;;;;;;4.27;72.40;102637.31;5029789;28;20049;-76
2022/01/26 06:23:05;;;;;;;127.50;48.00;;;;;;;4.26;72.45;102635.56;5029495;28;20479;-63
2022/01/26 06:25:33;;;;;;;119.88;46.83;;;;;;;4.25;72.34;102639.91;5029474;28;20046;-59
2022/01/26 06:28:05;;;;;;;126.50;49.28;;;;;;;4.27;72.44;102644.22;5029752;28;20048;-59
2022/01/26 06:30:32;;;;;;;122.22;47.70;;;;;;;4.31;72.27;102640.78;5029702;28;20045;-59
2022/01/26 06:32:59;;;;;;;130.15;48.05;;;;;;;4.29;72.09;102640.78;5028389;28;20119;-59
2022/01/26 06:35:27;;;;;;;124.65;47.53;;;;;;;4.34;72.05;102640.78;5028987;28;20379;-59
2022/01/26 06:37:54;;;;;;;128.70;49.10;;;;;;;4.27;72.50;102639.91;5026594;28;20037;-59
2022/01/26 06:40:23;;;;;;;127.53;46.67;;;;;;;4.28;72.07;102645.97;5029000;28;20050;-58
2022/01/26 06:42:54;;;;;;;135.68;49.25;;;;;;;4.28;72.33;102645.97;5028713;28;20056;-59
2022/01/26 06:45:27;;;;;;;134.60;48.72;;;;;;;4.31;72.06;102651.19;5028802;28;20042;-60
2022/01/26 06:48:38;;;;;;;125.68;48.78;;;;;;;4.31;72.02;102654.63;5026662;28;20045;-59
2022/01/26 06:50:59;;;;;;;129.75;46.85;;;;;;;4.31;72.08;102656.38;5009511;28;20401;-60
2022/01/26 06:53:26;;;;;;;123.20;47.13;;;;;;;4.37;72.74;102662.44;5009763;28;20056;-69
2022/01/26 06:55:53;;;;;;;127.10;45.95;;;;;;;4.51;71.66;102658.97;5008466;28;20093;-61
2022/01/26 06:58:20;;;;;;;123.97;45.10;;;;;;;4.46;72.03;102664.16;5009504;28;20052;-61
2022/01/26 07:00:46;;;;;;;114.63;44.67;;;;;;;4.38;72.13;102653.78;5009109;28;20050;-61
2022/01/26 07:03:13;;;;;;;109.65;44.60;;;;;;;4.33;72.27;102657.22;5009836;28;20046;-61
2022/01/26 07:05:40;;;;;;;102.18;39.03;;;;;;;4.34;72.81;102657.25;5014420;28;20065;-61
2022/01/26 07:08:07;;;;;;;122.70;46.63;;;;;;;4.33;72.66;102660.72;5029023;28;20046;-60
2022/01/26 07:10:36;;;;;;;116.72;45.72;;;;;;;4.26;72.78;102664.16;5027381;28;20107;-60
2022/01/26 07:13:03;;;;;;;115.95;46.90;;;;;;;4.27;72.81;102665.91;5028778;28;20053;-61
2022/01/26 07:23:41;;;;;;;103.95;43.38;;;;;;;4.24;72.54;102665.88;5033966;28;20057;-60
2022/01/26 07:26:08;;;;;;;108.38;44.03;;;;;;;4.22;72.25;102663.28;5035364;28;20056;-60
2022/01/26 07:28:38;;;;;;;110.80;44.50;;;;;;;4.23;72.53;102653.78;5035383;28;20049;-61
2022/01/26 07:31:08;;;;;;;118.68;45.05;;;;;;;4.30;72.37;102662.44;5035422;28;20080;-61
2022/01/26 07:33:35;;;;;;;120.55;47.10;;;;;;;4.24;72.35;102668.47;5035124;28;20076;-79
2022/01/26 07:36:02;;;;;;;110.78;45.75;;;;;;;4.24;72.51;102661.56;5032394;28;20053;-61
2022/01/26 07:38:29;;;;;;;116.57;43.38;;;;;;;4.20;72.43;102661.53;5033994;28;20045;-61
2022/01/26 07:40:55;;;;;;;114.35;43.95;;;;;;;4.32;72.34;102660.72;5031147;28;20123;-61
2022/01/26 07:43:22;;;;;;;106.55;44.33;;;;;;;4.25;72.29;102671.09;5032360;28;20133;-60
2022/01/26 07:45:49;;;;;;;111.30;43.70;;;;;;;4.23;72.44;102669.38;5022686;28;20044;-60
2022/01/26 07:48:15;;;;;;;105.05;42.70;;;;;;;4.19;72.31;102678.88;5034031;28;20140;-60
2022/01/26 07:50:42;;;;;;;106.38;43.22;;;;;;;4.21;72.21;102678.88;5033963;28;20398;-60
2022/01/26 07:53:14;;;;;;;104.05;43.22;;;;;;;4.50;71.67;102678.03;5034301;28;20102;-59
2022/01/26 07:55:41;;;;;;;102.68;44.47;;;;;;;4.49;71.79;102678.91;5033764;28;20111;-59
2022/01/26 07:58:09;;;;;;;106.70;45.40;;;;;;;4.50;71.94;102678.91;5034164;28;20406;-59
2022/01/26 08:00:36;;;;;;;114.47;48.20;;;;;;;4.41;72.00;102677.16;5033073;28;20050;-59
2022/01/26 08:03:03;;;;;;;109.38;46.63;;;;;;;4.42;71.75;102675.44;5034423;28;20457;-60
2022/01/26 08:05:30;;;;;;;106.47;44.33;;;;;;;4.45;72.13;102678.03;5033631;28;20095;-60
2022/01/26 08:07:57;;;;;;;112.30;45.50;;;;;;;4.48;71.91;102679.75;5033656;28;20048;-60
2022/01/26 08:10:24;;;;;;;110.88;47.47;;;;;;;4.46;72.12;102676.31;5034451;28;20049;-60
2022/01/26 08:12:54;;;;;;;121.78;49.10;;;;;;;4.51;71.73;102675.44;5028339;28;20057;-60
2022/01/26 08:15:27;;;;;;;123.30;51.47;;;;;;;4.49;71.82;102671.09;5033904;28;20490;-60
2022/01/26 08:17:55;;;;;;;115.97;47.30;;;;;;;4.44;72.08;102667.63;5034171;28;20132;-60
2022/01/26 08:20:22;;;;;;;114.00;47.00;;;;;;;4.53;72.04;102678.03;5034130;28;20049;-60
2022/01/26 08:22:51;;;;;;;117.65;48.38;;;;;;;4.49;71.85;102668.50;5033825;28;20053;-61
2022/01/26 08:25:20;;;;;;;115.63;48.28;;;;;;;4.55;72.06;102656.34;5033985;28;20045;-60
2022/01/26 08:27:54;;;;;;;121.38;47.90;;;;;;;4.63;71.73;102653.75;5031064;28;20543;-62
2022/01/26 08:30:21;;;;;;;118.00;46.63;;;;;;;4.73;71.58;102660.66;5031917;28;20050;-60
2022/01/26 08:32:48;;;;;;;127.57;49.67;;;;;;;4.76;71.88;102664.16;5030146;28;20042;-59
2022/01/26 08:35:15;;;;;;;129.55;49.10;;;;;;;4.80;71.32;102665.88;5030734;28;20049;-61
2022/01/26 08:37:41;;;;;;;122.53;48.08;;;;;;;4.74;71.51;102670.22;5030691;28;20524;-61
2022/01/26 08:40:08;;;;;;;118.28;48.92;;;;;;;4.80;71.52;102663.28;5030864;28;20053;-60
2022/01/26 08:42:37;;;;;;;115.05;46.45;;;;;;;4.84;71.38;102667.63;5030323;28;20049;-60
2022/01/26 08:45:05;;;;;;;119.68;49.45;;;;;;;4.89;71.07;102671.09;5030632;28;20161;-60
2022/01/26 08:47:32;;;;;;;118.65;48.55;;;;;;;4.95;71.16;102676.28;5031482;28;20132;-60
2022/01/26 08:49:59;;;;;;;112.47;47.08;;;;;;;5.07;70.85;102675.38;5030775;28;20129;-60
2022/01/26 08:52:28;;;;;;;116.07;47.38;;;;;;;5.05;70.91;102675.38;5030578;28;20087;-60
2022/01/26 08:54:55;;;;;;;116.95;47.47;;;;;;;5.01;71.21;102670.19;5029134;28;20115;-60
2022/01/26 08:57:22;;;;;;;113.05;47.08;;;;;;;5.05;71.23;102667.56;5030624;28;20051;-59
2022/01/26 08:59:49;;;;;;;113.00;47.58;;;;;;;5.16;70.64;102671.88;5030943;28;20057;-60
2022/01/26 09:02:15;;;;;;;112.53;49.85;;;;;;;5.20;70.49;102674.44;5030682;28;20045;-60
2022/01/26 09:04:42;;;;;;;115.88;48.10;;;;;;;5.19;70.44;102674.47;5030335;28;20592;-60
2022/01/26 09:07:14;;;;;;;119.68;48.33;;;;;;;5.26;70.37;102670.09;5030312;28;20567;-60
2022/01/26 09:09:43;;;;;;;113.95;47.42;;;;;;;5.29;70.30;102668.34;5030926;28;20045;-60
2022/01/26 09:12:12;;;;;;;111.65;47.22;;;;;;;5.32;70.17;102670.09;5029894;28;20465;-61
2022/01/26 09:14:39;;;;;;;113.00;47.63;;;;;;;5.39;69.94;102674.41;5028752;28;20560;-60
2022/01/26 09:17:07;;;;;;;112.00;47.00;;;;;;;5.50;69.79;102679.59;5029360;28;20085;-60
2022/01/26 09:19:35;;;;;;;111.95;47.45;;;;;;;5.57;69.68;102678.66;5030254;28;20053;-60
2022/01/26 09:22:16;;;;;;;111.85;46.38;;;;;;;5.60;69.36;102677.78;5030069;28;20060;-60
2022/01/26 09:24:44;;;;;;;114.97;47.72;;;;;;;5.64;69.33;102687.34;5030438;28;20430;-60
2022/01/26 09:27:14;;;;;;;103.38;47.05;;;;;;;5.75;69.19;102682.06;5030221;28;20045;-60
2022/01/26 09:29:42;;;;;;;106.97;47.53;;;;;;;5.85;68.83;102684.63;5029830;28;20068;-60
2022/01/26 09:32:11;;;;;;;101.85;47.55;;;;;;;5.87;68.91;102687.22;5029529;28;20057;-60
2022/01/26 09:34:39;;;;;;;102.00;44.95;;;;;;;5.94;68.53;102688.94;5030351;28;20099;-60
2022/01/26 09:37:08;;;;;;;106.47;48.05;;;;;;;5.93;68.62;102684.59;5030126;28;20050;-60
2022/01/26 09:39:39;;;;;;;105.53;48.33;;;;;;;6.04;68.53;102677.59;5030125;28;20045;-60
2022/01/26 09:42:08;;;;;;;107.07;47.15;;;;;;;6.31;67.54;102677.41;5028406;28;20046;-60
2022/01/26 09:44:42;;;;;;;99.47;46.80;;;;;;;6.46;67.00;102673.81;5029839;28;20096;-61
2022/01/26 09:47:13;;;;;;;107.00;47.13;;;;;;;6.56;66.96;102672.84;5029792;28;20045;-61
2022/01/26 09:49:40;;;;;;;107.10;47.85;;;;;;;6.73;66.39;102658.78;5029652;28;20103;-61
2022/01/26 09:52:40;;;;;;;104.85;46.72;;;;;;;6.92;65.91;102662.97;5029092;28;20095;-61
2022/01/26 09:55:09;;;;;;;128.57;58.45;;;;;;;7.11;65.20;102663.63;5027678;28;20115;-60
2022/01/26 09:57:40;;;;;;;234.75;110.88;;;;;;;7.36;64.70;102660.72;5029342;28;20052;-61
2022/01/26 10:00:08;;;;;;;232.68;113.13;;;;;;;7.57;64.17;102666.56;5021915;28;20048;-61
2022/01/26 10:02:36;;;;;;;179.57;91.60;;;;;;;7.72;63.67;102668.97;5028647;28;20053;-61
2022/01/26 10:05:11;;;;;;;115.70;60.10;;;;;;;7.87;63.25;102657.44;5028267;28;20050;-60
2022/01/26 10:07:51;;;;;;;118.25;58.00;;;;;;;8.16;62.34;102650.91;5028760;28;20045;-61
2022/01/26 10:16:36;;;;;;;104.35;51.30;;;;;;;8.04;62.59;102644.13;5024193;28;20049;-61
2022/01/26 10:18:58;;;;;;;98.22;47.30;;;;;;;7.76;63.30;102649.75;5026103;28;20045;-63
2022/01/26 10:21:25;;;;;;;106.32;49.08;;;;;;;7.56;63.68;102642.19;5027923;28;20056;-61
2022/01/26 10:23:54;;;;;;;95.20;48.15;;;;;;;7.31;64.00;102644.25;5024017;28;20849;-60
2022/01/26 10:26:21;;;;;;;108.22;52.25;;;;;;;7.23;64.39;102638.25;5008805;28;20054;-60
2022/01/26 10:28:57;;;;;;;101.43;50.22;;;;;;;7.13;64.50;102635.75;5008494;28;20100;-61
2022/01/26 10:31:37;;;;;;;102.50;52.08;;;;;;;7.13;64.22;102640.09;5008476;28;20165;-61
2022/01/26 10:34:13;;;;;;;119.32;60.28;;;;;;;7.11;64.17;102629.69;5025383;28;20124;-61
2022/01/26 10:36:45;;;;;;;105.13;51.55;;;;;;;7.07;64.19;102625.38;5045627;28;20048;-60
2022/01/26 10:39:12;;;;;;;105.53;53.33;;;;;;;7.01;64.27;102625.47;5040122;28;20115;-60
2022/01/26 10:41:42;;;;;;;135.38;66.30;;;;;;;7.01;64.44;102631.53;5044933;28;20512;-60
2022/01/26 10:44:09;;;;;;;139.98;67.10;;;;;;;7.02;64.17;102620.22;5009789;28;20452;-60
2022/01/26 10:46:42;;;;;;;132.77;65.78;;;;;;;7.01;64.29;102621.09;5039942;28;20543;-60
2022/01/26 10:54:24;;;;;;;128.30;61.03;;;;;;;6.86;64.61;102605.59;5045097;28;20044;-61
2022/01/26 10:56:51;;;;;;;153.50;72.05;;;;;;;6.81;64.61;102600.44;5037414;28;20064;-77
2022/01/26 10:59:19;;;;;;;129.32;58.63;;;;;;;6.84;64.66;102596.91;5038119;28;20044;-59
2022/01/26 11:01:46;;;;;;;164.30;73.65;;;;;;;6.87;64.28;102586.47;5035115;28;20044;-61
2022/01/26 11:04:14;;;;;;;78.25;39.47;;;;;;;7.37;64.01;102589.31;5045296;28;20045;-59
2022/01/26 11:06:48;;;;;;;80.57;41.38;;;;;;;8.22;63.38;102584.59;5048463;28;20094;-59
2022/01/26 11:09:21;;;;;;;108.60;54.05;;;;;;;8.82;63.43;102583.50;5048047;28;20041;-61
2022/01/26 11:11:58;;;;;;;113.30;56.22;;;;;;;9.30;63.62;102580.75;5047610;28;20511;-61
2022/01/26 11:14:25;;;;;;;134.75;65.40;;;;;;;9.61;63.44;102569.63;5037274;28;20045;-61
2022/01/26 11:17:00;;;;;;;140.27;72.18;;;;;;;9.39;63.20;102573.63;5028471;28;20064;-61
2022/01/26 11:19:27;;;;;;;90.53;48.80;;;;;;;8.69;64.33;102575.03;5027457;28;20049;-60
2022/01/26 11:21:53;;;;;;;85.30;46.45;;;;;;;8.37;64.49;102570.34;5027674;28;20053;-60
2022/01/26 11:24:48;;;;;;;111.40;60.35;;;;;;;8.11;64.17;102569.06;5028371;28;20478;-60
2022/01/26 11:27:17;;;;;;;131.82;65.53;;;;;;;7.93;64.37;102572.84;5028467;28;20099;-60
2022/01/26 11:29:48;;;;;;;102.57;50.22;;;;;;;7.70;64.75;102567.97;5028274;28;20049;-60
2022/01/26 11:32:23;;;;;;;213.75;100.60;;;;;;;7.59;64.69;102565.50;5028065;28;20095;-60
2022/01/26 11:34:53;;;;;;;158.35;76.82;;;;;;;7.44;64.51;102558.75;5026789;28;20494;-60
2022/01/26 11:37:37;;;;;;;146.52;70.90;;;;;;;7.45;64.29;102561.38;5028473;28;20046;-61
2022/01/26 11:45:37;;;;;;;98.05;47.75;;;;;;;7.37;64.19;102549.28;5033827;28;20053;-60
2022/01/26 11:48:10;;;;;;;278.75;119.40;;;;;;;7.32;64.38;102546.75;5046138;28;20532;-61
2022/01/26 11:50:42;;;;;;;127.82;62.00;;;;;;;7.37;64.71;102539.69;5007907;28;20061;-60
2022/01/26 11:53:16;;;;;;;105.38;49.97;;;;;;;7.29;64.30;102542.44;5008492;28;20521;-61
2022/01/26 11:55:49;;;;;;;144.57;69.60;;;;;;;7.18;64.63;102537.34;5007560;28;20512;-60
2022/01/26 11:58:27;;;;;;;103.70;48.28;;;;;;;7.19;64.49;102527.78;5009945;28;20124;-60
2022/01/26 12:01:20;;;;;;;115.90;55.08;;;;;;;7.21;64.09;102515.53;5026933;28;20046;-60
2022/01/26 12:04:00;;;;;;;141.52;67.10;;;;;;;7.22;64.08;102514.66;5028020;28;20580;-60
2022/01/26 12:06:42;;;;;;;116.90;52.67;;;;;;;7.19;64.04;102507.72;5029579;28;20060;-61
2022/01/26 12:09:10;;;;;;;88.55;42.15;;;;;;;7.27;64.55;102502.41;5031505;28;20493;-60
2022/01/26 12:11:37;;;;;;;107.35;48.58;;;;;;;7.26;64.82;102498.09;5031292;28;20068;-60
2022/01/26 12:14:07;;;;;;;116.03;53.97;;;;;;;7.17;65.25;102506.03;5030970;28;20445;-62
2022/01/26 12:16:45;;;;;;;267.70;156.65;;;;;;;7.15;65.16;102500.00;5031526;28;20456;-60
2022/01/26 12:38:22;;;;;;;102.25;44.58;;;;;;;6.96;64.79;102471.50;5031644;28;20053;-60
2022/01/26 12:43:59;;;;;;;101.35;45.63;;;;;;;7.10;64.46;102471.31;5022055;28;20046;-60
2022/01/26 12:46:29;;;;;;;103.22;45.60;;;;;;;7.11;64.26;102464.34;5008691;28;20522;-59
2022/01/26 12:49:01;;;;;;;116.00;51.42;;;;;;;7.02;64.41;102465.34;5009715;28;20160;-60
2022/01/26 12:51:29;;;;;;;175.65;83.35;;;;;;;6.95;64.41;102461.94;5030335;28;20046;-60
2022/01/26 12:54:02;;;;;;;106.38;48.33;;;;;;;7.00;64.76;102467.13;5031066;28;20049;-60
2022/01/26 12:56:31;;;;;;;145.50;63.92;;;;;;;7.03;64.58;102465.34;5030343;28;20049;-59
2022/01/26 12:59:06;;;;;;;106.22;48.05;;;;;;;7.06;64.54;102453.09;5027613;28;20084;-60
2022/01/26 13:01:34;;;;;;;104.82;45.38;;;;;;;7.00;64.58;102452.31;5025351;28;20052;-60
2022/01/26 13:04:04;;;;;;;103.05;44.80;;;;;;;7.06;64.26;102461.81;5030930;28;20107;-60
2022/01/26 13:06:38;;;;;;;99.38;44.72;;;;;;;6.96;64.71;102455.00;5030048;28;20048;-60
2022/01/26 13:09:20;;;;;;;107.07;46.25;;;;;;;6.94;64.74;102447.16;5030762;28;20479;-60
2022/01/26 13:11:50;;;;;;;106.47;49.03;;;;;;;6.89;64.79;102456.81;5030120;28;20046;-67
2022/01/26 13:14:29;;;;;;;144.32;66.95;;;;;;;6.82;65.04;102456.03;5030002;28;20058;-60
2022/01/26 13:17:20;;;;;;;144.38;62.22;;;;;;;6.89;64.62;102450.75;5030360;28;20052;-60
2022/01/26 13:23:05;;;;;;;99.78;46.28;;;;;;;6.75;65.25;102456.16;5030100;28;20050;-60
2022/01/26 13:38:53;;;;;;;127.82;52.35;;;;;;;6.79;65.30;102456.09;5030056;28;20072;-61
2022/01/26 13:44:40;;;;;;;115.40;48.13;;;;;;;7.12;64.72;102459.13;5027374;28;20041;-59
2022/01/26 13:47:31;;;;;;;111.00;46.45;;;;;;;6.99;65.10;102468.00;5010507;28;20046;-63
2022/01/26 13:53:05;;;;;;;113.82;44.45;;;;;;;6.82;65.49;102457.81;5009684;28;20058;-61
2022/01/26 13:58:24;;;;;;;113.97;44.78;;;;;;;6.84;65.55;102476.88;5029879;28;20502;-61
2022/01/26 14:00:58;;;;;;;119.95;45.17;;;;;;;6.84;65.50;102469.94;5060720;28;20563;-62
2022/01/26 14:03:28;;;;;;;118.78;46.95;;;;;;;6.79;65.68;102466.53;5029124;28;20045;-59
2022/01/26 14:05:56;;;;;;;117.53;46.55;;;;;;;6.82;65.64;102470.84;5029507;28;20053;-61
2022/01/26 14:08:23;;;;;;;121.85;47.03;;;;;;;6.81;65.58;102472.56;5029785;28;20491;-61
2022/01/26 14:10:50;;;;;;;124.57;49.45;;;;;;;6.79;65.54;102469.13;5026478;28;20053;-60
2022/01/26 14:13:21;;;;;;;132.38;53.58;;;;;;;6.83;65.70;102472.53;5027674;28;20054;-60
2022/01/26 14:15:51;;;;;;;131.52;50.97;;;;;;;6.78;65.90;102472.63;5029325;28;20050;-60